Time;durP1;ratioP1;P1;durP2;ratioP2;P2;SDS_P1;SDS_P2;PMS_P1;PMS_P2;Temp;Humidity;BMP_temperature;BMP_pressure;BME280_temperature;BME280_humidity;BME280_pressure;Samples;Min_cycle;Max_cycle;Signal;HPM_P1;HPM_P2
2023/03/11 00:00:40;;;;;;;2.55;0.80;;;8.70;99.90;;;;;;5033662;28;20037;-40
2023/03/11 00:03:07;;;;;;;1.65;0.77;;;8.70;99.90;;;;;;5033626;28;20029;-40
2023/03/11 00:05:37;;;;;;;2.50;0.90;;;8.80;99.90;;;;;;5033762;28;20059;-40
2023/03/11 00:08:03;;;;;;;1.50;0.80;;;8.70;99.90;;;;;;5033656;28;20029;-40
2023/03/11 00:10:35;;;;;;;0.90;0.70;;;8.80;99.90;;;;;;5048951;28;20025;-42
2023/03/11 00:13:03;;;;;;;1.17;0.70;;;8.70;99.90;;;;;;5049063;28;20021;-42
2023/03/11 00:15:29;;;;;;;1.75;0.85;;;8.70;99.90;;;;;;5033565;28;20029;-40
2023/03/11 00:17:56;;;;;;;1.02;0.80;;;8.70;99.90;;;;;;5033298;28;20450;-41
2023/03/11 00:20:26;;;;;;;1.13;0.90;;;8.70;99.90;;;;;;5033471;28;20029;-43
2023/03/11 00:22:52;;;;;;;0.90;0.52;;;8.70;99.90;;;;;;5033237;28;20021;-42
2023/03/11 00:25:19;;;;;;;1.60;0.70;;;8.70;99.90;;;;;;5033341;28;20032;-40
2023/03/11 00:27:45;;;;;;;1.02;0.80;;;8.70;99.90;;;;;;5032543;28;20033;-42
2023/03/11 00:30:12;;;;;;;1.30;0.80;;;8.70;99.90;;;;;;5033128;28;20391;-40
2023/03/11 00:32:38;;;;;;;1.02;0.70;;;8.70;99.90;;;;;;5033022;28;20044;-40
2023/03/11 00:35:05;;;;;;;0.88;0.68;;;8.70;99.90;;;;;;5033081;28;20391;-43
2023/03/11 00:37:31;;;;;;;1.50;0.80;;;8.70;99.90;;;;;;5032882;28;20391;-40
2023/03/11 00:39:58;;;;;;;0.98;0.65;;;8.70;99.90;;;;;;5048438;28;20121;-40
2023/03/11 00:42:23;;;;;;;1.52;0.73;;;8.70;99.90;;;;;;5033541;28;20073;-40
2023/03/11 00:44:49;;;;;;;1.42;0.73;;;8.80;99.90;;;;;;5048354;28;20052;-41
2023/03/11 00:47:15;;;;;;;2.15;0.88;;;8.70;99.90;;;;;;5032645;28;20483;-40
2023/03/11 00:49:41;;;;;;;1.20;0.68;;;8.70;99.90;;;;;;5032775;28;20080;-40
2023/03/11 00:52:07;;;;;;;2.60;0.70;;;8.70;99.90;;;;;;5032821;28;20495;-40
2023/03/11 00:54:33;;;;;;;1.27;0.85;;;8.70;99.90;;;;;;5033512;28;20155;-42
2023/03/11 00:56:58;;;;;;;1.13;0.70;;;8.70;99.90;;;;;;5034132;28;20021;-36
2023/03/11 00:59:24;;;;;;;1.17;0.80;;;8.70;99.90;;;;;;5048326;28;20032;-41
2023/03/11 01:01:50;;;;;;;1.58;1.00;;;8.70;99.90;;;;;;5032495;28;20555;-40
2023/03/11 01:04:15;;;;;;;2.15;1.00;;;8.80;99.90;;;;;;5032441;28;20121;-40
2023/03/11 01:06:41;;;;;;;0.85;0.73;;;9.10;99.90;;;;;;5032253;28;20399;-40
2023/03/11 01:09:06;;;;;;;2.80;1.00;;;9.40;99.90;;;;;;5032462;28;20021;-40
2023/03/11 01:11:32;;;;;;;1.65;1.08;;;9.40;99.90;;;;;;5032393;28;20097;-41
2023/03/11 01:13:58;;;;;;;1.50;1.02;;;9.40;99.90;;;;;;5032269;28;20121;-40
2023/03/11 01:16:23;;;;;;;3.33;1.73;;;9.40;99.90;;;;;;5047666;28;20531;-40
2023/03/11 01:18:49;;;;;;;3.72;1.45;;;9.30;99.90;;;;;;5032864;28;20029;-44
2023/03/11 01:21:15;;;;;;;5.50;2.05;;;9.30;99.90;;;;;;5032296;28;20522;-42
2023/03/11 01:23:41;;;;;;;5.55;2.20;;;9.30;99.90;;;;;;5032339;28;20065;-40
2023/03/11 01:26:07;;;;;;;2.88;1.42;;;9.20;99.90;;;;;;5032030;28;20056;-41
2023/03/11 01:28:33;;;;;;;6.40;2.30;;;9.10;99.90;;;;;;5032191;28;20068;-40
2023/03/11 01:30:59;;;;;;;2.00;1.35;;;9.10;99.90;;;;;;5031956;28;20017;-43
2023/03/11 01:33:24;;;;;;;2.72;1.55;;;9.10;99.90;;;;;;5031613;28;20052;-44
2023/03/11 01:35:50;;;;;;;2.90;1.20;;;9.10;99.90;;;;;;5031823;28;20472;-46
2023/03/11 01:38:16;;;;;;;1.95;1.50;;;9.10;99.90;;;;;;5032176;28;20415;-36
2023/03/11 01:40:47;;;;;;;3.35;1.50;;;9.10;99.90;;;;;;5031010;28;20109;-44
2023/03/11 01:43:35;;;;;;;2.15;1.23;;;9.00;99.90;;;;;;5031730;28;20022;-41
2023/03/11 01:46:03;;;;;;;2.70;1.38;;;9.00;99.90;;;;;;5031678;28;20479;-44
2023/03/11 01:48:29;;;;;;;2.10;1.25;;;9.00;99.90;;;;;;5031789;28;20026;-42
2023/03/11 01:50:56;;;;;;;1.88;1.10;;;9.00;99.90;;;;;;5031693;28;20029;-37
2023/03/11 01:53:24;;;;;;;3.05;1.50;;;9.00;99.90;;;;;;5031482;28;20029;-39
2023/03/11 01:55:49;;;;;;;2.80;1.40;;;9.00;99.90;;;;;;5031573;28;20033;-43
2023/03/11 01:58:23;;;;;;;3.15;1.17;;;9.00;99.90;;;;;;5031820;28;20028;-37
2023/03/11 02:00:49;;;;;;;2.33;1.40;;;8.90;99.90;;;;;;5031654;28;20040;-37
2023/03/11 02:03:23;;;;;;;1.60;1.05;;;8.90;99.90;;;;;;5031743;28;20038;-37
2023/03/11 02:05:51;;;;;;;1.55;1.10;;;9.10;99.90;;;;;;5031671;28;20029;-40
2023/03/11 02:08:17;;;;;;;2.63;1.27;;;9.40;99.90;;;;;;5032003;28;20067;-40
2023/03/11 02:10:43;;;;;;;1.88;1.20;;;9.50;99.90;;;;;;5047069;28;20022;-38
2023/03/11 02:13:09;;;;;;;1.17;0.80;;;9.40;99.90;;;;;;5031714;28;20499;-38
2023/03/11 02:15:35;;;;;;;2.17;1.15;;;9.40;99.90;;;;;;5031657;28;20112;-42
2023/03/11 02:18:04;;;;;;;1.63;0.98;;;9.30;99.90;;;;;;5031473;28;20033;-42
2023/03/11 02:21:08;;;;;;;1.65;0.90;;;9.20;99.90;;;;;;5031470;28;20025;-42
2023/03/11 02:23:43;;;;;;;2.95;1.00;;;9.20;99.90;;;;;;5020430;28;20115;-40
2023/03/11 02:26:12;;;;;;;;;;;9.10;99.90;;;;;;5032661;28;20296;-36
2023/03/11 02:28:39;;;;;;;2.55;1.30;;;9.10;99.90;;;;;;5033602;28;19906;-40
2023/03/11 02:31:05;;;;;;;2.85;0.90;;;9.10;99.90;;;;;;5039128;28;20021;-39
2023/03/11 02:33:33;;;;;;;1.85;1.05;;;9.10;99.90;;;;;;5031654;28;20029;-37
2023/03/11 02:35:59;;;;;;;2.20;0.90;;;9.00;99.90;;;;;;5031981;28;20017;-36
2023/03/11 02:38:25;;;;;;;3.10;1.30;;;8.90;99.90;;;;;;5031800;28;20044;-38
2023/03/11 02:41:00;;;;;;;1.13;0.90;;;9.00;99.90;;;;;;5031441;28;20533;-40
2023/03/11 02:43:42;;;;;;;1.70;0.90;;;8.90;99.90;;;;;;5031070;28;20052;-41
2023/03/11 02:46:10;;;;;;;4.28;1.15;;;8.90;99.90;;;;;;5030858;28;20021;-40
2023/03/11 02:48:37;;;;;;;1.50;1.00;;;8.90;99.90;;;;;;5031533;28;20026;-38
2023/03/11 02:51:03;;;;;;;1.35;1.05;;;8.90;99.90;;;;;;5031737;28;20102;-37
2023/03/11 02:53:33;;;;;;;1.52;0.80;;;8.90;99.90;;;;;;5034932;28;20045;-36
2023/03/11 02:55:59;;;;;;;2.30;0.98;;;8.80;99.90;;;;;;5034747;28;20167;-42
2023/03/11 02:58:25;;;;;;;1.60;0.85;;;8.80;99.90;;;;;;5050448;28;20112;-37
2023/03/11 03:00:50;;;;;;;2.08;0.82;;;8.80;99.90;;;;;;5035243;28;20151;-37
2023/03/11 03:03:16;;;;;;;2.45;1.05;;;8.80;99.90;;;;;;5034719;28;20140;-36
2023/03/11 03:05:41;;;;;;;1.48;0.90;;;9.00;99.90;;;;;;5035085;28;20033;-40
2023/03/11 03:08:07;;;;;;;1.33;0.80;;;9.30;99.90;;;;;;5035163;28;20025;-43
2023/03/11 03:10:33;;;;;;;2.10;1.05;;;9.40;99.90;;;;;;5035103;28;20033;-40
2023/03/11 03:12:58;;;;;;;3.33;1.20;;;9.40;99.90;;;;;;5035073;28;20033;-39
2023/03/11 03:15:24;;;;;;;2.33;0.80;;;9.40;99.90;;;;;;5034483;28;20048;-37
2023/03/11 03:17:50;;;;;;;3.33;0.98;;;9.30;99.90;;;;;;5050113;28;20068;-37
2023/03/11 03:20:17;;;;;;;1.80;0.90;;;9.20;99.90;;;;;;5034700;28;20033;-37
2023/03/11 03:22:43;;;;;;;1.90;0.80;;;9.10;99.90;;;;;;5035450;28;20160;-38
2023/03/11 03:25:09;;;;;;;1.55;0.88;;;9.10;99.90;;;;;;5034832;28;20356;-36
2023/03/11 03:27:35;;;;;;;1.77;0.80;;;9.00;99.90;;;;;;5034092;28;20545;-39
2023/03/11 03:30:01;;;;;;;1.92;0.90;;;9.00;99.90;;;;;;5035028;28;20028;-39
2023/03/11 03:32:27;;;;;;;2.17;0.80;;;8.90;99.90;;;;;;5034645;28;20029;-40
2023/03/11 03:34:57;;;;;;;1.85;1.00;;;8.90;99.90;;;;;;5035077;28;20033;-37
2023/03/11 03:37:27;;;;;;;1.23;0.63;;;8.90;99.90;;;;;;5034881;28;20036;-37
2023/03/11 03:39:53;;;;;;;1.50;0.82;;;8.90;99.90;;;;;;5034486;28;20021;-36
2023/03/11 03:42:19;;;;;;;1.80;0.63;;;8.90;99.90;;;;;;5034418;28;20028;-37
2023/03/11 03:44:44;;;;;;;3.47;0.68;;;8.80;99.90;;;;;;5049456;28;20026;-37
2023/03/11 03:47:10;;;;;;;2.75;0.82;;;8.80;99.90;;;;;;5034186;28;20048;-38
2023/03/11 03:49:36;;;;;;;3.03;0.90;;;8.80;99.90;;;;;;5034194;28;20033;-38
2023/03/11 03:52:04;;;;;;;2.72;0.90;;;8.80;99.90;;;;;;5034844;28;20025;-40
2023/03/11 03:54:30;;;;;;;1.02;0.75;;;8.70;99.90;;;;;;5034677;28;20029;-40
2023/03/11 03:56:56;;;;;;;1.83;0.90;;;8.70;99.90;;;;;;5033566;28;20464;-42
2023/03/11 03:59:22;;;;;;;1.85;0.80;;;8.70;99.90;;;;;;5033797;28;20076;-39
2023/03/11 04:01:48;;;;;;;2.15;0.98;;;8.70;99.90;;;;;;5033622;28;20451;-38
2023/03/11 04:04:14;;;;;;;1.50;0.80;;;8.80;99.90;;;;;;5032846;28;20029;-38
2023/03/11 04:06:39;;;;;;;1.98;0.75;;;9.00;99.90;;;;;;5034576;28;20053;-38
2023/03/11 04:09:05;;;;;;;1.45;0.82;;;9.40;99.90;;;;;;5035206;28;20036;-40
2023/03/11 04:11:31;;;;;;;1.33;0.75;;;9.30;99.90;;;;;;5033917;28;20032;-37
2023/03/11 04:13:56;;;;;;;2.28;0.60;;;9.30;99.90;;;;;;5033377;28;20052;-42
2023/03/11 04:16:23;;;;;;;2.33;0.60;;;9.20;99.90;;;;;;5033188;28;20021;-47
2023/03/11 04:18:49;;;;;;;2.17;1.02;;;9.10;99.90;;;;;;5033651;28;20086;-42
2023/03/11 04:21:15;;;;;;;2.53;0.80;;;9.00;99.90;;;;;;5033233;28;20121;-40
2023/03/11 04:23:41;;;;;;;2.63;0.70;;;9.00;99.90;;;;;;5033240;28;20476;-40
2023/03/11 04:26:07;;;;;;;2.15;0.93;;;8.90;99.90;;;;;;5033135;28;20036;-40
2023/03/11 04:28:33;;;;;;;2.25;0.70;;;8.90;99.90;;;;;;5031983;28;20033;-41
2023/03/11 04:30:58;;;;;;;3.05;0.90;;;8.80;99.90;;;;;;5033164;28;20026;-45
2023/03/11 04:33:24;;;;;;;1.52;0.80;;;8.80;99.90;;;;;;5032782;28;20407;-42
2023/03/11 04:35:49;;;;;;;2.65;0.88;;;8.80;99.90;;;;;;5032892;28;20061;-41
2023/03/11 04:38:15;;;;;;;3.38;0.90;;;8.80;99.90;;;;;;5032936;28;20048;-44
2023/03/11 04:40:41;;;;;;;1.55;0.57;;;8.70;99.90;;;;;;5033115;28;20033;-42
2023/03/11 04:43:07;;;;;;;1.50;0.75;;;8.70;99.90;;;;;;5031592;28;20033;-40
2023/03/11 04:45:35;;;;;;;1.58;0.80;;;8.70;99.90;;;;;;5033614;28;20369;-43
2023/03/11 04:48:01;;;;;;;2.22;0.82;;;8.70;99.90;;;;;;5032828;28;20398;-41
2023/03/11 04:50:27;;;;;;;2.72;0.88;;;8.70;99.90;;;;;;5033878;28;20107;-41
2023/03/11 04:52:52;;;;;;;3.00;1.00;;;8.70;99.90;;;;;;5032679;28;20037;-41
2023/03/11 04:55:18;;;;;;;1.77;0.80;;;8.60;99.90;;;;;;5033392;28;20089;-45
2023/03/11 04:57:43;;;;;;;2.15;0.70;;;8.60;99.90;;;;;;5032188;28;20065;-43
2023/03/11 05:00:11;;;;;;;2.00;0.70;;;8.60;99.90;;;;;;5032517;28;20045;-41
2023/03/11 05:02:38;;;;;;;1.83;0.80;;;8.50;99.90;;;;;;5033493;28;20030;-44
2023/03/11 05:05:05;;;;;;;1.75;0.68;;;8.70;99.90;;;;;;5047815;28;20192;-45
2023/03/11 05:07:31;;;;;;;1.02;0.60;;;9.00;99.90;;;;;;5032295;28;20026;-43
2023/03/11 05:09:56;;;;;;;1.20;0.60;;;9.20;99.90;;;;;;5032446;28;20032;-43
2023/03/11 05:12:22;;;;;;;4.95;0.90;;;9.20;99.90;;;;;;5032163;28;20018;-44
2023/03/11 05:14:47;;;;;;;0.80;0.50;;;9.10;99.90;;;;;;5032235;28;20022;-43
2023/03/11 05:17:13;;;;;;;2.20;0.80;;;9.10;99.90;;;;;;5032235;28;20044;-42
2023/03/11 05:19:40;;;;;;;1.88;0.80;;;8.90;99.90;;;;;;5033457;28;20033;-40
2023/03/11 05:22:06;;;;;;;4.88;0.68;;;8.90;99.90;;;;;;5032656;28;20037;-40
2023/03/11 05:24:32;;;;;;;2.30;0.70;;;8.80;99.90;;;;;;5032196;28;20455;-42
2023/03/11 05:26:58;;;;;;;3.80;0.98;;;8.80;99.90;;;;;;5032896;28;20100;-40
2023/03/11 05:29:25;;;;;;;2.33;0.90;;;8.70;99.90;;;;;;5032118;28;20164;-42
2023/03/11 05:31:50;;;;;;;2.20;0.90;;;8.70;99.90;;;;;;5032732;28;20030;-40
2023/03/11 05:34:17;;;;;;;4.50;0.80;;;8.70;99.90;;;;;;5031837;28;20037;-40
2023/03/11 05:36:42;;;;;;;2.67;0.82;;;8.60;99.90;;;;;;5032184;28;20026;-41
2023/03/11 05:39:08;;;;;;;1.70;0.55;;;8.60;99.90;;;;;;5031972;28;20021;-40
2023/03/11 05:41:34;;;;;;;2.67;0.95;;;8.60;99.90;;;;;;5031666;28;20041;-40
2023/03/11 05:44:00;;;;;;;3.17;1.00;;;8.50;99.90;;;;;;5032885;28;20029;-40
2023/03/11 05:46:26;;;;;;;3.10;0.80;;;8.60;99.90;;;;;;5032951;28;20045;-40
2023/03/11 05:48:51;;;;;;;1.70;0.80;;;8.50;99.90;;;;;;5048195;28;20079;-40
2023/03/11 05:51:17;;;;;;;1.88;0.80;;;8.50;99.90;;;;;;5030729;28;20445;-42
2023/03/11 05:53:48;;;;;;;3.55;0.95;;;8.50;99.90;;;;;;5031516;28;20053;-40
2023/03/11 05:56:19;;;;;;;6.97;0.85;;;8.50;99.90;;;;;;5031412;28;20029;-42
2023/03/11 05:58:45;;;;;;;2.67;0.90;;;8.50;99.90;;;;;;5031626;28;20052;-42
2023/03/11 06:01:13;;;;;;;2.10;0.70;;;8.50;99.90;;;;;;5031735;28;20558;-38
2023/03/11 06:03:40;;;;;;;3.00;1.00;;;8.50;99.90;;;;;;5031598;28;20069;-40
2023/03/11 06:06:08;;;;;;;4.10;1.20;;;8.70;99.90;;;;;;5031663;28;20029;-40
2023/03/11 06:08:34;;;;;;;1.63;0.70;;;9.00;99.90;;;;;;5031696;28;20133;-40
2023/03/11 06:11:08;;;;;;;3.38;0.77;;;9.10;99.90;;;;;;5031627;28;20480;-40
2023/03/11 06:13:35;;;;;;;2.08;0.80;;;9.10;99.90;;;;;;5031724;28;20589;-42
2023/03/11 06:16:01;;;;;;;1.42;0.70;;;9.00;99.90;;;;;;5031465;28;20104;-43
2023/03/11 06:18:26;;;;;;;2.15;0.70;;;8.90;99.90;;;;;;5031451;28;20117;-40
2023/03/11 06:20:53;;;;;;;2.42;0.88;;;8.90;99.90;;;;;;5031619;28;20606;-41
2023/03/11 06:23:19;;;;;;;4.43;1.17;;;8.80;99.90;;;;;;5031153;28;20049;-40
2023/03/11 06:25:58;;;;;;;3.72;1.05;;;8.70;99.90;;;;;;5031090;28;20427;-42
2023/03/11 06:28:24;;;;;;;1.98;0.80;;;8.60;99.90;;;;;;5031562;28;20340;-42
2023/03/11 06:30:50;;;;;;;3.05;1.20;;;8.70;99.90;;;;;;5031565;28;20499;-40
2023/03/11 06:33:16;;;;;;;4.90;1.77;;;8.60;99.90;;;;;;5031052;28;20021;-41
2023/03/11 06:35:41;;;;;;;2.45;1.35;;;8.60;99.90;;;;;;5030931;28;20025;-38
2023/03/11 06:38:07;;;;;;;4.00;1.45;;;8.60;99.90;;;;;;5031604;28;20030;-42
2023/03/11 06:40:33;;;;;;;4.47;1.13;;;8.60;99.90;;;;;;5032809;28;20472;-41
2023/03/11 06:42:58;;;;;;;3.75;1.20;;;8.60;99.90;;;;;;5030901;28;20026;-40
2023/03/11 06:45:25;;;;;;;4.15;1.25;;;8.60;99.90;;;;;;5032076;28;20066;-40
2023/03/11 06:47:50;;;;;;;3.08;1.25;;;8.60;99.90;;;;;;5047117;28;20061;-40
2023/03/11 06:50:16;;;;;;;3.33;1.70;;;8.60;99.90;;;;;;5031734;28;20061;-37
2023/03/11 06:52:42;;;;;;;2.97;1.40;;;8.60;99.90;;;;;;5030976;28;20033;-37
2023/03/11 06:55:08;;;;;;;2.72;1.20;;;8.60;99.90;;;;;;5031016;28;20026;-37
2023/03/11 06:57:34;;;;;;;4.25;1.30;;;8.60;99.90;;;;;;5030740;28;20037;-37
2023/03/11 06:59:59;;;;;;;4.90;1.40;;;8.60;99.90;;;;;;5032121;28;20506;-40
2023/03/11 07:02:25;;;;;;;1.83;0.93;;;8.60;99.90;;;;;;5030878;28;20040;-40
2023/03/11 07:04:51;;;;;;;2.85;1.30;;;8.70;99.90;;;;;;5030790;28;20033;-43
2023/03/11 07:07:17;;;;;;;2.45;0.90;;;9.10;99.90;;;;;;5030727;28;20352;-37
2023/03/11 07:09:43;;;;;;;3.45;1.23;;;9.20;99.90;;;;;;5030865;28;20020;-42
2023/03/11 07:12:09;;;;;;;2.83;1.17;;;9.20;99.90;;;;;;5030737;28;20029;-42
2023/03/11 07:14:34;;;;;;;2.63;1.20;;;9.10;99.90;;;;;;5030860;28;20029;-37
2023/03/11 07:17:00;;;;;;;4.22;1.00;;;9.10;99.90;;;;;;5030593;28;20390;-38
2023/03/11 07:19:26;;;;;;;2.92;1.10;;;9.00;99.90;;;;;;5030705;28;20083;-42
2023/03/11 07:21:52;;;;;;;2.53;1.15;;;8.90;99.90;;;;;;5030704;28;20557;-41
2023/03/11 07:24:17;;;;;;;2.08;1.02;;;8.90;99.90;;;;;;5030599;28;20038;-45
2023/03/11 07:26:43;;;;;;;2.67;0.95;;;8.90;99.90;;;;;;5030990;28;20029;-42
2023/03/11 07:29:09;;;;;;;2.53;1.02;;;8.90;99.90;;;;;;5031946;28;20075;-43
2023/03/11 07:31:36;;;;;;;3.38;1.00;;;8.80;99.90;;;;;;5030635;28;20025;-36
2023/03/11 07:34:04;;;;;;;2.72;1.02;;;8.90;99.90;;;;;;5031083;28;20026;-37
2023/03/11 07:36:30;;;;;;;2.58;1.02;;;8.80;99.90;;;;;;5030862;28;20052;-42
2023/03/11 07:39:02;;;;;;;1.65;0.80;;;8.90;99.90;;;;;;5032486;28;20104;-42
2023/03/11 07:41:29;;;;;;;3.80;1.17;;;8.80;99.90;;;;;;5034193;28;20052;-43
2023/03/11 07:43:57;;;;;;;2.03;0.95;;;8.90;99.90;;;;;;5034176;28;20033;-37
2023/03/11 07:46:24;;;;;;;3.20;1.00;;;8.90;99.90;;;;;;5033780;28;20076;-37
2023/03/11 07:48:51;;;;;;;3.88;1.10;;;8.80;99.90;;;;;;5033962;28;20430;-37
2023/03/11 07:51:19;;;;;;;5.93;1.13;;;8.80;99.90;;;;;;5034259;28;20018;-38
2023/03/11 07:53:46;;;;;;;2.42;0.98;;;8.80;99.90;;;;;;5033852;28;20426;-40
2023/03/11 07:56:13;;;;;;;2.60;1.05;;;8.80;99.90;;;;;;5034406;28;20534;-42
2023/03/11 07:58:39;;;;;;;2.28;0.98;;;8.80;99.90;;;;;;5034440;28;20025;-44
2023/03/11 08:01:08;;;;;;;3.30;1.05;;;8.80;99.90;;;;;;5033744;28;20183;-42
2023/03/11 08:03:34;;;;;;;2.42;0.95;;;8.80;99.90;;;;;;5033596;28;20041;-40
2023/03/11 08:06:00;;;;;;;3.35;0.90;;;8.80;99.90;;;;;;5033694;28;20460;-41
2023/03/11 08:08:26;;;;;;;4.90;1.25;;;8.80;99.90;;;;;;5034373;28;20036;-38
2023/03/11 08:10:52;;;;;;;4.13;1.10;;;8.80;99.90;;;;;;5036194;28;20032;-38
2023/03/11 08:13:17;;;;;;;2.13;0.80;;;8.80;99.90;;;;;;5035214;28;20033;-37
2023/03/11 08:15:43;;;;;;;1.75;0.80;;;8.80;99.90;;;;;;5033370;28;20549;-40
2023/03/11 08:18:08;;;;;;;2.97;1.10;;;8.80;99.90;;;;;;5034013;28;20065;-43
2023/03/11 08:20:36;;;;;;;1.60;0.80;;;8.80;99.90;;;;;;5034639;28;20029;-40
2023/03/11 08:23:02;;;;;;;3.42;1.10;;;8.80;99.90;;;;;;5033566;28;20372;-38
2023/03/11 08:25:28;;;;;;;1.80;1.10;;;8.80;99.90;;;;;;5033236;28;20026;-36
2023/03/11 08:27:53;;;;;;;2.05;0.85;;;8.80;99.90;;;;;;5033020;28;20043;-40
2023/03/11 08:30:19;;;;;;;2.80;0.93;;;8.80;99.90;;;;;;5033145;28;20030;-40
2023/03/11 08:32:45;;;;;;;2.03;1.02;;;8.80;99.90;;;;;;5048443;28;20083;-39
2023/03/11 08:35:10;;;;;;;3.47;1.05;;;8.80;99.90;;;;;;5033194;28;20506;-40
2023/03/11 08:37:36;;;;;;;1.92;1.00;;;8.90;99.90;;;;;;5032877;28;20104;-40
2023/03/11 08:40:02;;;;;;;1.83;1.00;;;8.90;99.90;;;;;;5033075;28;20029;-42
2023/03/11 08:42:28;;;;;;;2.42;0.90;;;8.90;99.90;;;;;;5048178;28;20030;-40
2023/03/11 08:44:53;;;;;;;1.60;0.77;;;8.90;99.90;;;;;;5032849;28;20021;-40
2023/03/11 08:47:19;;;;;;;2.78;1.00;;;8.90;99.90;;;;;;5032667;28;20026;-39
2023/03/11 08:49:44;;;;;;;3.25;1.15;;;8.90;99.90;;;;;;5032615;28;20029;-40
2023/03/11 08:52:10;;;;;;;2.65;0.95;;;8.90;99.90;;;;;;5032760;28;20025;-40
2023/03/11 08:54:36;;;;;;;4.25;1.02;;;9.00;99.90;;;;;;5032964;28;20061;-40
2023/03/11 08:57:01;;;;;;;1.77;1.10;;;9.00;99.90;;;;;;5033920;28;20467;-40
2023/03/11 08:59:28;;;;;;;3.50;0.93;;;9.00;99.90;;;;;;5032429;28;20034;-42
2023/03/11 09:01:54;;;;;;;2.60;1.10;;;9.00;99.90;;;;;;5032590;28;20043;-40
2023/03/11 09:04:19;;;;;;;2.40;0.70;;;9.00;99.90;;;;;;5032946;28;20108;-43
2023/03/11 09:06:47;;;;;;;3.17;0.80;;;8.90;99.90;;;;;;5032436;28;20428;-41
2023/03/11 09:09:19;;;;;;;1.55;0.95;;;8.90;99.90;;;;;;5031537;28;20025;-42
2023/03/11 09:11:46;;;;;;;2.00;0.85;;;8.90;99.90;;;;;;5032321;28;20029;-42
2023/03/11 09:14:12;;;;;;;4.30;1.05;;;9.00;99.90;;;;;;5032421;28;20029;-40
2023/03/11 09:16:37;;;;;;;4.28;1.13;;;9.00;99.90;;;;;;5032158;28;20083;-46
2023/03/11 09:19:06;;;;;;;5.07;1.15;;;9.00;99.90;;;;;;5032363;28;20482;-41
2023/03/11 09:21:32;;;;;;;4.07;1.00;;;9.00;99.90;;;;;;5032193;28;20041;-40
2023/03/11 09:23:58;;;;;;;2.03;0.80;;;9.00;99.90;;;;;;5033024;28;20052;-41
2023/03/11 09:26:24;;;;;;;3.25;0.98;;;9.00;99.90;;;;;;5031966;28;20459;-40
2023/03/11 09:28:50;;;;;;;2.38;0.80;;;9.00;99.90;;;;;;5032092;28;20040;-40
2023/03/11 09:31:17;;;;;;;2.13;0.90;;;9.00;99.90;;;;;;5032108;28;20022;-41
2023/03/11 09:33:43;;;;;;;2.08;0.73;;;9.10;99.90;;;;;;5032000;28;20384;-40
2023/03/11 09:36:18;;;;;;;1.33;0.90;;;9.10;99.90;;;;;;5031712;28;20049;-40
2023/03/11 09:38:45;;;;;;;2.40;0.88;;;9.10;99.90;;;;;;5032000;28;20025;-41
2023/03/11 09:41:16;;;;;;;2.78;1.00;;;9.10;99.90;;;;;;5031906;28;20048;-40
2023/03/11 09:44:01;;;;;;;1.67;0.70;;;9.00;99.90;;;;;;5031704;28;20079;-42
2023/03/11 09:46:48;;;;;;;2.17;1.00;;;9.00;99.90;;;;;;5031636;28;20105;-45
2023/03/11 09:49:26;;;;;;;3.55;0.90;;;9.00;99.90;;;;;;5032478;28;20391;-40
2023/03/11 09:52:00;;;;;;;1.42;0.88;;;9.10;99.90;;;;;;5031768;28;20017;-40
2023/03/11 09:54:29;;;;;;;2.25;0.88;;;9.10;99.90;;;;;;5031804;28;20383;-42
2023/03/11 09:56:55;;;;;;;5.22;0.75;;;9.10;99.90;;;;;;5046674;28;20083;-40
2023/03/11 09:59:31;;;;;;;2.50;1.00;;;9.10;99.90;;;;;;5031653;28;20555;-42
2023/03/11 10:01:58;;;;;;;1.98;0.80;;;9.10;99.90;;;;;;5030606;28;20056;-44
2023/03/11 10:04:56;;;;;;;1.27;0.80;;;9.10;99.90;;;;;;5032053;28;20060;-44
2023/03/11 10:07:32;;;;;;;1.55;0.55;;;9.10;99.90;;;;;;5032527;28;20025;-40
2023/03/11 10:09:58;;;;;;;1.88;0.80;;;9.10;99.90;;;;;;5032481;28;20387;-42
2023/03/11 10:12:42;;;;;;;2.72;0.70;;;9.10;99.90;;;;;;5031384;28;20022;-36
2023/03/11 10:15:26;;;;;;;2.40;0.90;;;9.10;99.90;;;;;;5031415;28;20017;-42
2023/03/11 10:18:13;;;;;;;2.90;0.83;;;9.10;99.90;;;;;;5031694;28;20026;-43
2023/03/11 10:21:01;;;;;;;2.35;0.82;;;9.20;99.90;;;;;;5031262;28;20028;-42
2023/03/11 10:24:17;;;;;;;1.38;0.70;;;9.20;99.90;;;;;;5031226;28;20029;-37
2023/03/11 10:26:55;;;;;;;2.45;0.70;;;9.20;99.90;;;;;;5008943;28;20022;-43
2023/03/11 10:29:26;;;;;;;1.48;0.60;;;9.20;99.90;;;;;;5021960;28;20026;-37
2023/03/11 10:31:56;;;;;;;1.73;0.77;;;9.20;99.90;;;;;;5031039;28;20030;-37
2023/03/11 10:34:41;;;;;;;3.78;1.10;;;9.30;99.90;;;;;;5031270;28;20061;-43
2023/03/11 10:37:28;;;;;;;1.85;0.80;;;9.20;99.90;;;;;;5031393;28;20084;-42
2023/03/11 10:39:56;;;;;;;1.73;0.70;;;9.20;99.90;;;;;;5031248;28;20048;-37
2023/03/11 10:42:26;;;;;;;3.25;1.00;;;9.20;99.90;;;;;;5031071;28;20056;-37
2023/03/11 10:44:52;;;;;;;2.08;0.80;;;9.20;99.90;;;;;;5031149;28;20053;-40
2023/03/11 10:47:23;;;;;;;2.10;0.80;;;9.20;99.90;;;;;;5030859;28;20049;-42
2023/03/11 10:49:49;;;;;;;1.25;0.60;;;9.30;99.90;;;;;;5031036;28;20020;-44
2023/03/11 10:52:15;;;;;;;1.83;0.70;;;9.30;99.90;;;;;;5032169;28;20026;-40
2023/03/11 10:54:46;;;;;;;1.88;0.88;;;9.30;99.90;;;;;;5031151;28;20036;-41
2023/03/11 10:57:26;;;;;;;1.30;0.60;;;9.30;99.90;;;;;;5030931;28;20109;-42
2023/03/11 10:59:54;;;;;;;1.65;0.60;;;9.30;99.90;;;;;;5030876;28;20021;-42
2023/03/11 11:02:31;;;;;;;1.30;0.77;;;9.30;99.90;;;;;;5046292;28;20049;-40
2023/03/11 11:05:15;;;;;;;1.20;0.73;;;9.40;99.90;;;;;;5031072;28;20104;-40
2023/03/11 11:07:41;;;;;;;2.95;0.80;;;9.40;99.90;;;;;;5030745;28;20034;-40
2023/03/11 11:10:24;;;;;;;3.58;1.10;;;9.40;99.90;;;;;;5030874;28;20075;-40
2023/03/11 11:12:56;;;;;;;1.02;0.60;;;9.40;99.90;;;;;;5032624;28;20053;-40
2023/03/11 11:15:22;;;;;;;2.80;0.90;;;9.40;99.90;;;;;;5034649;28;20057;-41
2023/03/11 11:17:48;;;;;;;2.15;0.95;;;9.40;99.90;;;;;;5034353;28;20032;-40
2023/03/11 11:20:18;;;;;;;1.50;0.88;;;9.40;99.90;;;;;;5034734;28;20052;-37
2023/03/11 11:22:51;;;;;;;1.95;0.68;;;9.40;99.90;;;;;;5034373;28;20033;-38
2023/03/11 11:25:54;;;;;;;1.90;0.70;;;9.50;99.90;;;;;;5034731;28;20048;-37
2023/03/11 11:28:20;;;;;;;3.75;1.63;;;9.40;99.90;;;;;;5034850;28;20554;-37
2023/03/11 11:31:18;;;;;;;6.93;1.70;;;9.40;99.90;;;;;;5034821;28;20029;-37
2023/03/11 11:33:51;;;;;;;8.63;2.05;;;9.20;99.90;;;;;;5034345;28;20029;-36
2023/03/11 11:36:17;;;;;;;4.43;1.60;;;8.90;99.90;;;;;;5034452;28;20025;-35
2023/03/11 11:38:44;;;;;;;6.38;1.88;;;8.90;99.90;;;;;;5034569;28;20018;-36
2023/03/11 11:41:16;;;;;;;3.40;1.30;;;8.90;99.90;;;;;;5034411;28;20033;-39
2023/03/11 11:43:51;;;;;;;5.15;2.03;;;8.90;99.90;;;;;;5032686;28;20021;-35
2023/03/11 11:46:45;;;;;;;5.78;1.60;;;9.00;99.90;;;;;;5034573;28;20029;-36
2023/03/11 11:49:16;;;;;;;6.37;1.50;;;9.00;99.90;;;;;;5034347;28;20476;-36
2023/03/11 11:51:59;;;;;;;5.60;1.50;;;9.00;99.90;;;;;;5034435;28;20049;-36
2023/03/11 11:54:37;;;;;;;5.25;1.27;;;9.00;99.90;;;;;;5037080;28;20103;-39
2023/03/11 11:57:14;;;;;;;4.82;1.73;;;9.00;99.90;;;;;;5034583;28;20029;-43
2023/03/11 11:59:41;;;;;;;4.07;1.50;;;9.10;99.90;;;;;;5036974;28;20030;-41
2023/03/11 12:02:21;;;;;;;4.38;1.33;;;9.10;99.90;;;;;;5036502;28;20120;-40
2023/03/11 12:05:02;;;;;;;6.18;1.67;;;9.00;99.90;;;;;;5035138;28;20022;-40
2023/03/11 12:08:05;;;;;;;5.63;1.23;;;9.00;99.90;;;;;;5034249;28;20048;-39
2023/03/11 12:10:32;;;;;;;4.90;1.50;;;9.00;99.90;;;;;;5037268;28;20025;-38
2023/03/11 12:13:04;;;;;;;2.55;1.15;;;9.00;99.90;;;;;;5037187;28;20391;-41
2023/03/11 12:15:37;;;;;;;3.47;1.20;;;9.10;99.90;;;;;;5035196;28;20036;-43
2023/03/11 12:18:10;;;;;;;4.32;1.13;;;9.10;99.90;;;;;;5036929;28;20025;-37
2023/03/11 12:20:44;;;;;;;3.60;1.30;;;9.10;99.90;;;;;;5036493;28;20061;-41
2023/03/11 12:23:22;;;;;;;;;;;9.10;99.90;;;;;;5051389;28;20089;-39
2023/03/11 12:26:10;;;;;;;3.53;1.15;;;9.10;99.90;;;;;;5033967;28;19905;-39
2023/03/11 12:28:49;;;;;;;3.90;1.00;;;9.20;99.90;;;;;;5033721;28;20022;-40
2023/03/11 12:31:15;;;;;;;3.40;1.05;;;9.10;99.90;;;;;;5036217;28;20021;-40
2023/03/11 12:33:43;;;;;;;1.92;1.15;;;9.20;99.90;;;;;;5034982;28;20503;-43
2023/03/11 12:36:32;;;;;;;2.92;1.00;;;9.20;99.90;;;;;;5033075;28;20471;-40
2023/03/11 12:39:00;;;;;;;2.33;1.20;;;9.20;99.90;;;;;;5033387;28;20033;-40
2023/03/11 12:41:40;;;;;;;4.05;1.13;;;9.20;99.90;;;;;;5033153;28;20026;-39
2023/03/11 12:44:24;;;;;;;12.45;1.08;;;9.20;99.90;;;;;;5032929;28;20021;-42
2023/03/11 12:46:53;;;;;;;6.23;0.90;;;9.00;99.90;;;;;;5032311;28;20022;-45
2023/03/11 12:49:29;;;;;;;3.05;0.90;;;8.90;99.90;;;;;;5033001;28;20100;-37
2023/03/11 12:52:10;;;;;;;6.75;1.25;;;9.00;99.90;;;;;;5033090;28;20025;-36
2023/03/11 12:54:46;;;;;;;3.45;1.13;;;9.00;99.90;;;;;;5032886;28;20025;-42
2023/03/11 12:57:15;;;;;;;3.70;0.90;;;9.10;99.90;;;;;;5048018;28;20057;-42
2023/03/11 12:59:53;;;;;;;2.28;0.77;;;9.00;99.90;;;;;;5032619;28;20418;-37
2023/03/11 13:02:51;;;;;;;5.45;0.90;;;9.10;99.90;;;;;;5032977;28;20033;-36
2023/03/11 13:05:54;;;;;;;1.23;0.55;;;9.10;99.90;;;;;;5033139;28;20440;-40
2023/03/11 13:08:51;;;;;;;2.97;0.70;;;9.10;99.90;;;;;;5032588;28;20040;-37